sensor_id;sensor_type;location;lat;lon;timestamp;pressure;altitude;pressure_sealevel;temperature;humidity
4326;BME280;58429;49.826;10.880;2022-09-09T00:00:53;98321;;;15.3;70.7
4326;BME280;58429;49.826;10.880;2022-09-09T00:01:51;98314;;;15.28;70.52
4326;BME280;58429;49.826;10.880;2022-09-09T00:02:54;98312;;;15.26;70.51
4326;BME280;58429;49.826;10.880;2022-09-09T00:03:52;98315;;;15.19;70.49
4326;BME280;58429;49.826;10.880;2022-09-09T00:04:53;98314;;;15.19;70.41
4326;BME280;58429;49.826;10.880;2022-09-09T00:05:51;98309;;;15.23;70.37
4326;BME280;58429;49.826;10.880;2022-09-09T00:06:50;98308;;;15.16;70.54
4326;BME280;58429;49.826;10.880;2022-09-09T00:07:51;98307;;;15.12;70.51
4326;BME280;58429;49.826;10.880;2022-09-09T00:08:52;98312;;;15.08;70.6
4326;BME280;58429;49.826;10.880;2022-09-09T00:09:52;98308;;;15.05;70.74
4326;BME280;58429;49.826;10.880;2022-09-09T00:10:51;98303;;;15.03;70.88
4326;BME280;58429;49.826;10.880;2022-09-09T00:11:51;98313;;;15.02;71.04
4326;BME280;58429;49.826;10.880;2022-09-09T00:12:52;98310;;;15;71.12
4326;BME280;58429;49.826;10.880;2022-09-09T00:13:51;98305;;;14.98;71.25
4326;BME280;58429;49.826;10.880;2022-09-09T00:14:50;98312;;;14.91;71.47
4326;BME280;58429;49.826;10.880;2022-09-09T00:15:52;98312;;;14.9;71.26
4326;BME280;58429;49.826;10.880;2022-09-09T00:16:51;98309;;;14.87;71.27
4326;BME280;58429;49.826;10.880;2022-09-09T00:17:51;98313;;;14.89;71.31
4326;BME280;58429;49.826;10.880;2022-09-09T00:18:52;98319;;;14.87;71.59
4326;BME280;58429;49.826;10.880;2022-09-09T00:19:51;98315;;;14.9;71.41
4326;BME280;58429;49.826;10.880;2022-09-09T00:20:52;98314;;;14.84;71.43
4326;BME280;58429;49.826;10.880;2022-09-09T00:21:53;98311;;;14.86;71.59
4326;BME280;58429;49.826;10.880;2022-09-09T00:22:51;98304;;;14.86;71.73
4326;BME280;58429;49.826;10.880;2022-09-09T00:23:50;98309;;;14.84;71.73
4326;BME280;58429;49.826;10.880;2022-09-09T00:24:51;98309;;;14.83;71.74
4326;BME280;58429;49.826;10.880;2022-09-09T00:25:52;98311;;;14.82;71.82
4326;BME280;58429;49.826;10.880;2022-09-09T00:26:51;98308;;;14.82;71.9
4326;BME280;58429;49.826;10.880;2022-09-09T00:27:50;98310;;;14.8;71.96
4326;BME280;58429;49.826;10.880;2022-09-09T00:28:52;98305;;;14.78;72
4326;BME280;58429;49.826;10.880;2022-09-09T00:29:51;98307;;;14.81;72.1
4326;BME280;58429;49.826;10.880;2022-09-09T00:30:50;98306;;;14.77;72.26
4326;BME280;58429;49.826;10.880;2022-09-09T00:31:50;98312;;;14.79;72.28
4326;BME280;58429;49.826;10.880;2022-09-09T00:32:51;98310;;;14.8;72.26
4326;BME280;58429;49.826;10.880;2022-09-09T00:33:50;98306;;;14.79;72.33
4326;BME280;58429;49.826;10.880;2022-09-09T00:34:51;98317;;;14.76;72.39
4326;BME280;58429;49.826;10.880;2022-09-09T00:35:51;98309;;;14.71;72.4
4326;BME280;58429;49.826;10.880;2022-09-09T00:36:50;98313;;;14.71;72.47
4326;BME280;58429;49.826;10.880;2022-09-09T00:37:51;98310;;;14.75;72.53
4326;BME280;58429;49.826;10.880;2022-09-09T00:38:51;98303;;;14.73;72.54
4326;BME280;58429;49.826;10.880;2022-09-09T00:39:50;98311;;;14.71;72.59
4326;BME280;58429;49.826;10.880;2022-09-09T00:40:51;98304;;;14.74;72.56
4326;BME280;58429;49.826;10.880;2022-09-09T00:41:51;98307;;;14.77;72.54
4326;BME280;58429;49.826;10.880;2022-09-09T00:42:51;98308;;;14.76;72.64
4326;BME280;58429;49.826;10.880;2022-09-09T00:43:55;98306;;;14.77;72.51
4326;BME280;58429;49.826;10.880;2022-09-09T00:44:53;98309;;;14.81;72.56
4326;BME280;58429;49.826;10.880;2022-09-09T00:45:54;98301;;;14.82;72.72
4326;BME280;58429;49.826;10.880;2022-09-09T00:46:53;98309;;;14.83;72.57
4326;BME280;58429;49.826;10.880;2022-09-09T00:47:50;98308;;;14.84;72.68
4326;BME280;58429;49.826;10.880;2022-09-09T00:48:52;98307;;;14.81;72.75
4326;BME280;58429;49.826;10.880;2022-09-09T00:49:54;98305;;;14.82;72.76
4326;BME280;58429;49.826;10.880;2022-09-09T00:50:51;98306;;;14.83;73
4326;BME280;58429;49.826;10.880;2022-09-09T00:51:52;98308;;;14.83;73
4326;BME280;58429;49.826;10.880;2022-09-09T00:52:52;98308;;;14.85;73.01
4326;BME280;58429;49.826;10.880;2022-09-09T00:53:57;98301;;;14.85;73.02
4326;BME280;58429;49.826;10.880;2022-09-09T00:54:52;98311;;;14.84;72.92
4326;BME280;58429;49.826;10.880;2022-09-09T00:55:52;98303;;;14.84;73.03
4326;BME280;58429;49.826;10.880;2022-09-09T00:56:53;98303;;;14.83;73.06
4326;BME280;58429;49.826;10.880;2022-09-09T00:57:51;98305;;;14.81;73.1
4326;BME280;58429;49.826;10.880;2022-09-09T00:58:52;98305;;;14.81;73.16
4326;BME280;58429;49.826;10.880;2022-09-09T00:59:51;98302;;;14.79;73.2
4326;BME280;58429;49.826;10.880;2022-09-09T01:00:51;98304;;;14.81;73.29
4326;BME280;58429;49.826;10.880;2022-09-09T01:01:50;98298;;;14.77;73.42
4326;BME280;58429;49.826;10.880;2022-09-09T01:02:53;98304;;;14.8;73.26
4326;BME280;58429;49.826;10.880;2022-09-09T01:03:51;98303;;;14.75;73.44
4326;BME280;58429;49.826;10.880;2022-09-09T01:04:50;98296;;;14.77;73.35
4326;BME280;58429;49.826;10.880;2022-09-09T01:05:53;98301;;;14.74;73.36
4326;BME280;58429;49.826;10.880;2022-09-09T01:06:51;98298;;;14.71;73.49
4326;BME280;58429;49.826;10.880;2022-09-09T01:07:50;98301;;;14.75;73.49
4326;BME280;58429;49.826;10.880;2022-09-09T01:08:55;98304;;;14.73;73.57
4326;BME280;58429;49.826;10.880;2022-09-09T01:09:52;98301;;;14.78;73.7
4326;BME280;58429;49.826;10.880;2022-09-09T01:10:50;98303;;;14.75;73.51
4326;BME280;58429;49.826;10.880;2022-09-09T01:11:52;98302;;;14.77;73.65
4326;BME280;58429;49.826;10.880;2022-09-09T01:12:50;98301;;;14.76;73.61
4326;BME280;58429;49.826;10.880;2022-09-09T01:13:52;98304;;;14.8;73.65
4326;BME280;58429;49.826;10.880;2022-09-09T01:14:51;98300;;;14.78;73.67
4326;BME280;58429;49.826;10.880;2022-09-09T01:15:50;98302;;;14.79;73.65
4326;BME280;58429;49.826;10.880;2022-09-09T01:16:50;98300;;;14.78;73.55
4326;BME280;58429;49.826;10.880;2022-09-09T01:17:52;98301;;;14.81;73.64
4326;BME280;58429;49.826;10.880;2022-09-09T01:18:51;98305;;;14.81;73.68
4326;BME280;58429;49.826;10.880;2022-09-09T01:19:55;98300;;;14.8;73.61
4326;BME280;58429;49.826;10.880;2022-09-09T01:20:53;98302;;;14.77;73.54
4326;BME280;58429;49.826;10.880;2022-09-09T01:21:53;98302;;;14.79;73.6
4326;BME280;58429;49.826;10.880;2022-09-09T01:22:55;98304;;;14.77;73.6
4326;BME280;58429;49.826;10.880;2022-09-09T01:23:56;98296;;;14.77;73.6
4326;BME280;58429;49.826;10.880;2022-09-09T01:25:01;98299;;;14.76;73.76
4326;BME280;58429;49.826;10.880;2022-09-09T01:26:23;98301;;;14.74;73.65
4326;BME280;58429;49.826;10.880;2022-09-09T01:26:50;98298;;;14.74;73.79
4326;BME280;58429;49.826;10.880;2022-09-09T01:27:50;98296;;;14.74;73.87
4326;BME280;58429;49.826;10.880;2022-09-09T01:28:50;98298;;;14.73;73.9
4326;BME280;58429;49.826;10.880;2022-09-09T01:29:50;98296;;;14.71;73.92
4326;BME280;58429;49.826;10.880;2022-09-09T01:30:50;98298;;;14.72;74.03
4326;BME280;58429;49.826;10.880;2022-09-09T01:31:52;98294;;;14.71;73.98
4326;BME280;58429;49.826;10.880;2022-09-09T01:32:50;98300;;;14.72;73.91
4326;BME280;58429;49.826;10.880;2022-09-09T01:33:50;98302;;;14.72;73.73
4326;BME280;58429;49.826;10.880;2022-09-09T01:34:50;98301;;;14.74;73.89
4326;BME280;58429;49.826;10.880;2022-09-09T01:35:50;98301;;;14.73;73.91
4326;BME280;58429;49.826;10.880;2022-09-09T01:36:51;98302;;;14.72;73.91
4326;BME280;58429;49.826;10.880;2022-09-09T01:37:50;98305;;;14.7;74.01
4326;BME280;58429;49.826;10.880;2022-09-09T01:38:50;98303;;;14.71;73.91
4326;BME280;58429;49.826;10.880;2022-09-09T01:39:50;98299;;;14.75;73.88
4326;BME280;58429;49.826;10.880;2022-09-09T01:40:50;98302;;;14.77;73.85
4326;BME280;58429;49.826;10.880;2022-09-09T01:41:50;98307;;;14.74;73.89
4326;BME280;58429;49.826;10.880;2022-09-09T01:42:50;98304;;;14.76;73.91
4326;BME280;58429;49.826;10.880;2022-09-09T01:43:50;98302;;;14.72;74.04
4326;BME280;58429;49.826;10.880;2022-09-09T01:44:50;98306;;;14.75;74.04
4326;BME280;58429;49.826;10.880;2022-09-09T01:45:50;98302;;;14.76;74.07
4326;BME280;58429;49.826;10.880;2022-09-09T01:46:50;98303;;;14.71;74.03
4326;BME280;58429;49.826;10.880;2022-09-09T01:47:50;98297;;;14.7;73.9
4326;BME280;58429;49.826;10.880;2022-09-09T01:48:50;98299;;;14.66;73.97
4326;BME280;58429;49.826;10.880;2022-09-09T01:49:50;98300;;;14.65;73.86
4326;BME280;58429;49.826;10.880;2022-09-09T01:50:50;98301;;;14.64;73.93
4326;BME280;58429;49.826;10.880;2022-09-09T01:51:51;98297;;;14.64;73.9
4326;BME280;58429;49.826;10.880;2022-09-09T01:52:51;98299;;;14.59;73.87
4326;BME280;58429;49.826;10.880;2022-09-09T01:53:50;98302;;;14.58;73.92
4326;BME280;58429;49.826;10.880;2022-09-09T01:54:50;98298;;;14.57;73.93
4326;BME280;58429;49.826;10.880;2022-09-09T01:55:53;98294;;;14.57;73.99
4326;BME280;58429;49.826;10.880;2022-09-09T01:56:52;98299;;;14.56;74.05
4326;BME280;58429;49.826;10.880;2022-09-09T01:57:53;98297;;;14.55;74.18
4326;BME280;58429;49.826;10.880;2022-09-09T01:59:02;98297;;;14.52;74.13
4326;BME280;58429;49.826;10.880;2022-09-09T01:59:53;98295;;;14.53;74.33
4326;BME280;58429;49.826;10.880;2022-09-09T02:00:51;98301;;;14.44;74.22
4326;BME280;58429;49.826;10.880;2022-09-09T02:01:54;98292;;;14.48;74.3
4326;BME280;58429;49.826;10.880;2022-09-09T02:02:53;98301;;;14.43;74.39
4326;BME280;58429;49.826;10.880;2022-09-09T02:03:51;98301;;;14.43;74.46
4326;BME280;58429;49.826;10.880;2022-09-09T02:04:50;98302;;;14.44;74.53
4326;BME280;58429;49.826;10.880;2022-09-09T02:05:53;98301;;;14.43;74.55
4326;BME280;58429;49.826;10.880;2022-09-09T02:06:50;98303;;;14.38;74.59
4326;BME280;58429;49.826;10.880;2022-09-09T02:07:50;98304;;;14.41;74.68
4326;BME280;58429;49.826;10.880;2022-09-09T02:08:50;98300;;;14.39;74.66
4326;BME280;58429;49.826;10.880;2022-09-09T02:09:52;98304;;;14.39;74.85
4326;BME280;58429;49.826;10.880;2022-09-09T02:10:52;98304;;;14.4;74.81
4326;BME280;58429;49.826;10.880;2022-09-09T02:11:50;98298;;;14.37;74.82
4326;BME280;58429;49.826;10.880;2022-09-09T02:12:51;98303;;;14.39;74.88
4326;BME280;58429;49.826;10.880;2022-09-09T02:13:51;98305;;;14.37;74.9
4326;BME280;58429;49.826;10.880;2022-09-09T02:14:51;98306;;;14.41;74.98
4326;BME280;58429;49.826;10.880;2022-09-09T02:15:51;98301;;;14.41;75.05
4326;BME280;58429;49.826;10.880;2022-09-09T02:16:51;98298;;;14.4;75.19
4326;BME280;58429;49.826;10.880;2022-09-09T02:17:50;98302;;;14.5;75.11
4326;BME280;58429;49.826;10.880;2022-09-09T02:18:51;98293;;;14.47;75.32
4326;BME280;58429;49.826;10.880;2022-09-09T02:19:51;98296;;;14.48;75.13
4326;BME280;58429;49.826;10.880;2022-09-09T02:20:50;98295;;;14.48;75.45
4326;BME280;58429;49.826;10.880;2022-09-09T02:21:50;98294;;;14.46;75.65
4326;BME280;58429;49.826;10.880;2022-09-09T02:22:50;98304;;;14.51;75.54
4326;BME280;58429;49.826;10.880;2022-09-09T02:23:50;98306;;;14.47;75.63
4326;BME280;58429;49.826;10.880;2022-09-09T02:24:50;98298;;;14.48;75.73
4326;BME280;58429;49.826;10.880;2022-09-09T02:25:50;98291;;;14.45;75.51
4326;BME280;58429;49.826;10.880;2022-09-09T02:26:51;98296;;;14.48;75.6
4326;BME280;58429;49.826;10.880;2022-09-09T02:27:50;98300;;;14.46;75.79
4326;BME280;58429;49.826;10.880;2022-09-09T02:28:51;98297;;;14.47;75.66
4326;BME280;58429;49.826;10.880;2022-09-09T02:29:50;98302;;;14.43;76.15
4326;BME280;58429;49.826;10.880;2022-09-09T02:30:50;98304;;;14.45;75.82
4326;BME280;58429;49.826;10.880;2022-09-09T02:31:50;98303;;;14.45;75.65
4326;BME280;58429;49.826;10.880;2022-09-09T02:32:50;98296;;;14.45;75.89
4326;BME280;58429;49.826;10.880;2022-09-09T02:33:51;98300;;;14.44;75.79
4326;BME280;58429;49.826;10.880;2022-09-09T02:34:51;98305;;;14.52;75.65
4326;BME280;58429;49.826;10.880;2022-09-09T02:35:50;98304;;;14.5;75.7
4326;BME280;58429;49.826;10.880;2022-09-09T02:36:50;98306;;;14.54;75.7
4326;BME280;58429;49.826;10.880;2022-09-09T02:37:50;98308;;;14.52;75.78
4326;BME280;58429;49.826;10.880;2022-09-09T02:38:50;98310;;;14.55;75.73
4326;BME280;58429;49.826;10.880;2022-09-09T02:39:50;98313;;;14.56;75.84
4326;BME280;58429;49.826;10.880;2022-09-09T02:40:50;98308;;;14.55;75.88
4326;BME280;58429;49.826;10.880;2022-09-09T02:41:50;98311;;;14.59;75.86
4326;BME280;58429;49.826;10.880;2022-09-09T02:42:50;98310;;;14.58;75.9
4326;BME280;58429;49.826;10.880;2022-09-09T02:43:50;98310;;;14.59;75.75
4326;BME280;58429;49.826;10.880;2022-09-09T02:44:50;98306;;;14.61;75.78
4326;BME280;58429;49.826;10.880;2022-09-09T02:45:51;98306;;;14.61;75.7
4326;BME280;58429;49.826;10.880;2022-09-09T02:46:57;98300;;;14.61;75.94
4326;BME280;58429;49.826;10.880;2022-09-09T02:47:50;98296;;;14.61;75.77
4326;BME280;58429;49.826;10.880;2022-09-09T02:48:51;98299;;;14.62;75.93
4326;BME280;58429;49.826;10.880;2022-09-09T02:49:52;98298;;;14.61;75.95
4326;BME280;58429;49.826;10.880;2022-09-09T02:50:52;98297;;;14.62;76
4326;BME280;58429;49.826;10.880;2022-09-09T02:51:51;98294;;;14.63;76.11
4326;BME280;58429;49.826;10.880;2022-09-09T02:52:54;98295;;;14.65;76.3
4326;BME280;58429;49.826;10.880;2022-09-09T02:53:51;98293;;;14.61;76.3
4326;BME280;58429;49.826;10.880;2022-09-09T02:54:50;98291;;;14.65;76.28
4326;BME280;58429;49.826;10.880;2022-09-09T02:55:51;98296;;;14.65;76.26
4326;BME280;58429;49.826;10.880;2022-09-09T02:56:51;98301;;;14.64;76.18
4326;BME280;58429;49.826;10.880;2022-09-09T02:57:50;98297;;;14.66;76.09
4326;BME280;58429;49.826;10.880;2022-09-09T02:58:50;98304;;;14.68;76.16
4326;BME280;58429;49.826;10.880;2022-09-09T02:59:50;98304;;;14.68;76.13
4326;BME280;58429;49.826;10.880;2022-09-09T03:00:50;98305;;;14.65;76.09
4326;BME280;58429;49.826;10.880;2022-09-09T03:01:50;98299;;;14.67;76.14
4326;BME280;58429;49.826;10.880;2022-09-09T03:02:50;98300;;;14.7;76.07
4326;BME280;58429;49.826;10.880;2022-09-09T03:03:50;98299;;;14.69;76.03
4326;BME280;58429;49.826;10.880;2022-09-09T03:04:50;98296;;;14.72;76.03
4326;BME280;58429;49.826;10.880;2022-09-09T03:05:50;98299;;;14.71;75.92
4326;BME280;58429;49.826;10.880;2022-09-09T03:06:50;98292;;;14.69;76.03
4326;BME280;58429;49.826;10.880;2022-09-09T03:07:50;98298;;;14.7;76.01
4326;BME280;58429;49.826;10.880;2022-09-09T03:08:50;98298;;;14.71;75.99
4326;BME280;58429;49.826;10.880;2022-09-09T03:09:50;98291;;;14.76;75.91
4326;BME280;58429;49.826;10.880;2022-09-09T03:10:50;98302;;;14.76;75.96
4326;BME280;58429;49.826;10.880;2022-09-09T03:11:50;98298;;;14.72;75.95
4326;BME280;58429;49.826;10.880;2022-09-09T03:12:50;98291;;;14.76;76.08
4326;BME280;58429;49.826;10.880;2022-09-09T03:13:50;98299;;;14.76;75.98
4326;BME280;58429;49.826;10.880;2022-09-09T03:14:50;98299;;;14.75;75.91
4326;BME280;58429;49.826;10.880;2022-09-09T03:15:50;98295;;;14.78;75.94
4326;BME280;58429;49.826;10.880;2022-09-09T03:16:50;98303;;;14.79;76.03
4326;BME280;58429;49.826;10.880;2022-09-09T03:17:50;98295;;;14.75;75.97
4326;BME280;58429;49.826;10.880;2022-09-09T03:18:50;98292;;;14.76;75.82
4326;BME280;58429;49.826;10.880;2022-09-09T03:19:50;98299;;;14.77;76
4326;BME280;58429;49.826;10.880;2022-09-09T03:20:50;98296;;;14.78;75.92
4326;BME280;58429;49.826;10.880;2022-09-09T03:21:50;98297;;;14.77;75.93
4326;BME280;58429;49.826;10.880;2022-09-09T03:22:50;98293;;;14.79;76.03
4326;BME280;58429;49.826;10.880;2022-09-09T03:23:50;98295;;;14.77;76.02
4326;BME280;58429;49.826;10.880;2022-09-09T03:24:50;98291;;;14.78;75.9
4326;BME280;58429;49.826;10.880;2022-09-09T03:25:50;98289;;;14.8;75.82
4326;BME280;58429;49.826;10.880;2022-09-09T03:26:50;98299;;;14.81;75.81
4326;BME280;58429;49.826;10.880;2022-09-09T03:27:50;98296;;;14.81;75.74
4326;BME280;58429;49.826;10.880;2022-09-09T03:28:50;98293;;;14.79;75.83
4326;BME280;58429;49.826;10.880;2022-09-09T03:29:50;98290;;;14.82;75.86
4326;BME280;58429;49.826;10.880;2022-09-09T03:30:50;98289;;;14.8;75.75
4326;BME280;58429;49.826;10.880;2022-09-09T03:31:50;98290;;;14.82;75.92
4326;BME280;58429;49.826;10.880;2022-09-09T03:32:50;98290;;;14.83;75.94
4326;BME280;58429;49.826;10.880;2022-09-09T03:33:50;98287;;;14.83;75.98
4326;BME280;58429;49.826;10.880;2022-09-09T03:34:50;98283;;;14.83;75.81
4326;BME280;58429;49.826;10.880;2022-09-09T03:35:50;98287;;;14.83;75.66
4326;BME280;58429;49.826;10.880;2022-09-09T03:36:50;98289;;;14.83;75.68
4326;BME280;58429;49.826;10.880;2022-09-09T03:37:50;98281;;;14.84;75.62
4326;BME280;58429;49.826;10.880;2022-09-09T03:38:50;98283;;;14.8;75.68
4326;BME280;58429;49.826;10.880;2022-09-09T03:39:50;98283;;;14.82;75.72
4326;BME280;58429;49.826;10.880;2022-09-09T03:40:50;98281;;;14.83;75.79
4326;BME280;58429;49.826;10.880;2022-09-09T03:41:50;98277;;;14.79;75.49
4326;BME280;58429;49.826;10.880;2022-09-09T03:42:50;98278;;;14.81;75.52
4326;BME280;58429;49.826;10.880;2022-09-09T03:43:50;98278;;;14.82;75.61
4326;BME280;58429;49.826;10.880;2022-09-09T03:44:50;98275;;;14.81;75.51
4326;BME280;58429;49.826;10.880;2022-09-09T03:45:50;98273;;;14.83;75.56
4326;BME280;58429;49.826;10.880;2022-09-09T03:46:50;98277;;;14.84;75.66
4326;BME280;58429;49.826;10.880;2022-09-09T03:47:50;98274;;;14.81;75.72
4326;BME280;58429;49.826;10.880;2022-09-09T03:48:50;98268;;;14.83;75.59
4326;BME280;58429;49.826;10.880;2022-09-09T03:49:50;98270;;;14.84;75.53
4326;BME280;58429;49.826;10.880;2022-09-09T03:50:50;98263;;;14.82;75.69
4326;BME280;58429;49.826;10.880;2022-09-09T03:51:50;98257;;;14.84;75.63
4326;BME280;58429;49.826;10.880;2022-09-09T03:52:50;98256;;;14.84;75.55
4326;BME280;58429;49.826;10.880;2022-09-09T03:53:50;98260;;;14.84;75.67
4326;BME280;58429;49.826;10.880;2022-09-09T03:54:50;98265;;;14.83;75.74
4326;BME280;58429;49.826;10.880;2022-09-09T03:55:51;98269;;;14.82;75.68
4326;BME280;58429;49.826;10.880;2022-09-09T03:56:50;98265;;;14.83;75.73
4326;BME280;58429;49.826;10.880;2022-09-09T03:57:50;98270;;;14.81;75.64
4326;BME280;58429;49.826;10.880;2022-09-09T03:58:50;98276;;;14.84;75.83
4326;BME280;58429;49.826;10.880;2022-09-09T03:59:50;98275;;;14.86;75.8
4326;BME280;58429;49.826;10.880;2022-09-09T04:00:54;98282;;;14.88;75.79
4326;BME280;58429;49.826;10.880;2022-09-09T04:01:50;98273;;;14.85;75.76
4326;BME280;58429;49.826;10.880;2022-09-09T04:02:50;98272;;;14.86;75.61
4326;BME280;58429;49.826;10.880;2022-09-09T04:03:50;98276;;;14.87;75.66
4326;BME280;58429;49.826;10.880;2022-09-09T04:04:50;98282;;;14.86;75.56
4326;BME280;58429;49.826;10.880;2022-09-09T04:05:50;98281;;;14.86;75.52
4326;BME280;58429;49.826;10.880;2022-09-09T04:06:50;98278;;;14.87;75.65
4326;BME280;58429;49.826;10.880;2022-09-09T04:07:50;98285;;;14.85;75.51
4326;BME280;58429;49.826;10.880;2022-09-09T04:08:50;98282;;;14.86;75.49
4326;BME280;58429;49.826;10.880;2022-09-09T04:09:50;98273;;;14.85;75.42
4326;BME280;58429;49.826;10.880;2022-09-09T04:10:50;98273;;;14.88;75.59
4326;BME280;58429;49.826;10.880;2022-09-09T04:11:50;98269;;;14.87;75.57
4326;BME280;58429;49.826;10.880;2022-09-09T04:12:50;98268;;;14.86;75.6
4326;BME280;58429;49.826;10.880;2022-09-09T04:13:50;98269;;;14.87;75.72
4326;BME280;58429;49.826;10.880;2022-09-09T04:14:50;98263;;;14.87;75.66
4326;BME280;58429;49.826;10.880;2022-09-09T04:15:50;98268;;;14.85;75.67
4326;BME280;58429;49.826;10.880;2022-09-09T04:16:50;98264;;;14.87;75.58
4326;BME280;58429;49.826;10.880;2022-09-09T04:17:50;98267;;;14.86;75.55
4326;BME280;58429;49.826;10.880;2022-09-09T04:18:50;98269;;;14.89;75.5
4326;BME280;58429;49.826;10.880;2022-09-09T04:19:50;98273;;;14.88;75.58
4326;BME280;58429;49.826;10.880;2022-09-09T04:20:51;98271;;;14.87;75.5
4326;BME280;58429;49.826;10.880;2022-09-09T04:21:50;98280;;;14.91;75.53
4326;BME280;58429;49.826;10.880;2022-09-09T04:22:50;98278;;;14.89;75.5
4326;BME280;58429;49.826;10.880;2022-09-09T04:23:50;98280;;;14.89;75.31
4326;BME280;58429;49.826;10.880;2022-09-09T04:24:50;98276;;;14.87;75.41
4326;BME280;58429;49.826;10.880;2022-09-09T04:25:50;98281;;;14.89;75.25
4326;BME280;58429;49.826;10.880;2022-09-09T04:26:50;98280;;;14.88;75.35
4326;BME280;58429;49.826;10.880;2022-09-09T04:27:52;98282;;;14.88;75.3
4326;BME280;58429;49.826;10.880;2022-09-09T04:28:50;98281;;;14.91;75.31
4326;BME280;58429;49.826;10.880;2022-09-09T04:29:50;98282;;;14.89;75.31
4326;BME280;58429;49.826;10.880;2022-09-09T04:30:50;98279;;;14.89;75.23
4326;BME280;58429;49.826;10.880;2022-09-09T04:31:50;98277;;;14.88;75.19
4326;BME280;58429;49.826;10.880;2022-09-09T04:32:50;98273;;;14.88;75.23
4326;BME280;58429;49.826;10.880;2022-09-09T04:33:50;98273;;;14.9;75.34
4326;BME280;58429;49.826;10.880;2022-09-09T04:34:50;98272;;;14.91;75.41
4326;BME280;58429;49.826;10.880;2022-09-09T04:35:50;98271;;;14.89;75.32
4326;BME280;58429;49.826;10.880;2022-09-09T04:36:50;98267;;;14.9;75.44
4326;BME280;58429;49.826;10.880;2022-09-09T04:37:50;98273;;;14.9;75.57
4326;BME280;58429;49.826;10.880;2022-09-09T04:38:50;98272;;;14.9;75.54
4326;BME280;58429;49.826;10.880;2022-09-09T04:39:50;98277;;;14.91;75.62
4326;BME280;58429;49.826;10.880;2022-09-09T04:40:50;98276;;;14.91;75.42
4326;BME280;58429;49.826;10.880;2022-09-09T04:41:50;98272;;;14.94;75.39
4326;BME280;58429;49.826;10.880;2022-09-09T04:42:50;98263;;;14.9;75.44
4326;BME280;58429;49.826;10.880;2022-09-09T04:43:50;98269;;;14.95;75.52
4326;BME280;58429;49.826;10.880;2022-09-09T04:44:50;98273;;;14.93;75.57
4326;BME280;58429;49.826;10.880;2022-09-09T04:45:50;98285;;;14.98;75.47
4326;BME280;58429;49.826;10.880;2022-09-09T04:46:50;98283;;;14.95;75.53
4326;BME280;58429;49.826;10.880;2022-09-09T04:47:50;98285;;;14.98;75.47
4326;BME280;58429;49.826;10.880;2022-09-09T04:48:50;98285;;;14.93;75.24
4326;BME280;58429;49.826;10.880;2022-09-09T04:49:50;98290;;;14.97;75.23
4326;BME280;58429;49.826;10.880;2022-09-09T04:50:54;98284;;;14.96;75.39
4326;BME280;58429;49.826;10.880;2022-09-09T04:51:50;98289;;;14.92;75.25
4326;BME280;58429;49.826;10.880;2022-09-09T04:52:50;98287;;;14.95;75.25
4326;BME280;58429;49.826;10.880;2022-09-09T04:53:50;98288;;;14.95;75.23
4326;BME280;58429;49.826;10.880;2022-09-09T04:54:50;98295;;;14.96;75.22
4326;BME280;58429;49.826;10.880;2022-09-09T04:55:50;98300;;;14.96;75.53
4326;BME280;58429;49.826;10.880;2022-09-09T04:56:50;98299;;;14.92;75.39
4326;BME280;58429;49.826;10.880;2022-09-09T04:57:50;98296;;;14.95;75.42
4326;BME280;58429;49.826;10.880;2022-09-09T04:58:50;98302;;;14.89;75.45
4326;BME280;58429;49.826;10.880;2022-09-09T04:59:50;98298;;;14.9;75.55
4326;BME280;58429;49.826;10.880;2022-09-09T05:00:50;98303;;;14.88;75.51
4326;BME280;58429;49.826;10.880;2022-09-09T05:01:50;98304;;;14.92;75.59
4326;BME280;58429;49.826;10.880;2022-09-09T05:02:50;98299;;;14.89;75.47
4326;BME280;58429;49.826;10.880;2022-09-09T05:03:50;98306;;;14.89;75.47
4326;BME280;58429;49.826;10.880;2022-09-09T05:04:50;98309;;;14.89;75.52
4326;BME280;58429;49.826;10.880;2022-09-09T05:05:50;98309;;;14.91;75.51
4326;BME280;58429;49.826;10.880;2022-09-09T05:06:55;98306;;;14.9;75.45
4326;BME280;58429;49.826;10.880;2022-09-09T05:07:50;98306;;;14.91;75.43
4326;BME280;58429;49.826;10.880;2022-09-09T05:08:50;98306;;;14.91;75.41
4326;BME280;58429;49.826;10.880;2022-09-09T05:09:50;98307;;;14.91;75.46
4326;BME280;58429;49.826;10.880;2022-09-09T05:10:50;98309;;;14.92;75.49
4326;BME280;58429;49.826;10.880;2022-09-09T05:11:50;98303;;;14.94;75.52
4326;BME280;58429;49.826;10.880;2022-09-09T05:12:52;98310;;;14.93;75.7
4326;BME280;58429;49.826;10.880;2022-09-09T05:13:50;98310;;;14.96;75.79
4326;BME280;58429;49.826;10.880;2022-09-09T05:14:50;98310;;;14.93;75.79
4326;BME280;58429;49.826;10.880;2022-09-09T05:15:51;98316;;;14.94;75.86
4326;BME280;58429;49.826;10.880;2022-09-09T05:16:50;98315;;;14.99;75.87
4326;BME280;58429;49.826;10.880;2022-09-09T05:17:50;98313;;;14.96;75.96
4326;BME280;58429;49.826;10.880;2022-09-09T05:18:50;98314;;;14.98;75.94
4326;BME280;58429;49.826;10.880;2022-09-09T05:19:50;98317;;;15;76.07
4326;BME280;58429;49.826;10.880;2022-09-09T05:20:50;98314;;;14.99;75.94
4326;BME280;58429;49.826;10.880;2022-09-09T05:21:50;98317;;;14.95;75.91
4326;BME280;58429;49.826;10.880;2022-09-09T05:22:52;98317;;;15.02;76.04
4326;BME280;58429;49.826;10.880;2022-09-09T05:23:50;98324;;;14.98;75.66
4326;BME280;58429;49.826;10.880;2022-09-09T05:24:50;98321;;;15;75.7
4326;BME280;58429;49.826;10.880;2022-09-09T05:25:54;98323;;;14.96;75.8
4326;BME280;58429;49.826;10.880;2022-09-09T05:26:50;98326;;;15;75.68
4326;BME280;58429;49.826;10.880;2022-09-09T05:27:50;98320;;;15.02;75.88
4326;BME280;58429;49.826;10.880;2022-09-09T05:28:50;98328;;;15;75.89
4326;BME280;58429;49.826;10.880;2022-09-09T05:29:50;98326;;;15;75.77
4326;BME280;58429;49.826;10.880;2022-09-09T05:30:55;98322;;;14.98;75.83
4326;BME280;58429;49.826;10.880;2022-09-09T05:31:50;98331;;;14.95;75.71
4326;BME280;58429;49.826;10.880;2022-09-09T05:32:50;98324;;;14.97;75.64